Time;durP1;ratioP1;P1;durP2;ratioP2;P2;SDS_P1;SDS_P2;PMS_P1;PMS_P2;Temp;Humidity;BMP_temperature;BMP_pressure;BME280_temperature;BME280_humidity;BME280_pressure;Samples;Min_cycle;Max_cycle;Signal;HPM_P1;HPM_P2
2021/07/25 00:00:48;;;;;;;28.33;20.33;;;19.30;99.90;;;;;;5039733;28;20602;-50
2021/07/25 00:03:15;;;;;;;28.13;20.40;;;19.40;99.90;;;;;;5041684;28;22185;-50
2021/07/25 00:05:43;;;;;;;28.80;20.57;;;19.40;99.90;;;;;;5043459;28;20212;-50
2021/07/25 00:08:12;;;;;;;28.20;20.97;;;19.40;99.90;;;;;;5040420;28;20609;-51
2021/07/25 00:10:41;;;;;;;27.57;20.67;;;19.30;99.90;;;;;;5041718;28;20230;-51
2021/07/25 00:13:08;;;;;;;27.60;20.43;;;19.20;99.90;;;;;;5042950;28;20665;-50
2021/07/25 00:15:36;;;;;;;30.17;21.33;;;19.20;99.90;;;;;;5043417;28;20216;-51
2021/07/25 00:18:03;;;;;;;29.67;21.30;;;19.10;99.90;;;;;;5043317;28;20643;-50
2021/07/25 00:20:30;;;;;;;31.90;21.93;;;19.00;99.90;;;;;;5039511;28;20231;-50
2021/07/25 00:22:57;;;;;;;28.60;21.07;;;18.90;99.90;;;;;;5038830;28;20286;-50
2021/07/25 00:25:25;;;;;;;31.77;20.93;;;18.90;99.90;;;;;;5040590;28;20301;-50
2021/07/25 00:27:57;;;;;;;29.43;22.37;;;18.90;99.90;;;;;;5041304;28;20659;-50
2021/07/25 00:30:25;;;;;;;30.20;21.70;;;18.80;99.90;;;;;;5041918;28;20299;-50
2021/07/25 00:32:53;;;;;;;29.53;21.23;;;18.80;99.90;;;;;;5041629;28;20285;-50
2021/07/25 00:35:20;;;;;;;30.63;21.17;;;19.00;99.90;;;;;;5043102;28;20627;-51
2021/07/25 00:37:48;;;;;;;27.07;20.83;;;19.10;99.90;;;;;;5039560;28;20256;-50
2021/07/25 00:40:17;;;;;;;26.50;20.63;;;19.10;99.90;;;;;;5039743;28;20211;-50
2021/07/25 00:42:44;;;;;;;27.63;21.43;;;19.10;99.90;;;;;;5042470;28;20297;-51
2021/07/25 00:45:11;;;;;;;28.87;20.80;;;19.20;99.90;;;;;;5044244;28;20307;-51
2021/07/25 00:47:39;;;;;;;30.37;21.57;;;19.30;99.90;;;;;;5041289;28;20282;-50
2021/07/25 00:50:08;;;;;;;30.37;19.57;;;19.20;99.90;;;;;;5038399;28;20568;-50
2021/07/25 00:52:36;;;;;;;27.87;21.23;;;19.20;99.90;;;;;;5043099;28;20663;-50
2021/07/25 00:55:03;;;;;;;26.93;20.40;;;19.10;99.90;;;;;;5041926;28;20310;-50
2021/07/25 00:57:31;;;;;;;31.23;20.97;;;18.80;99.90;;;;;;5004216;28;1077880;-50
2021/07/25 00:59:57;;;;;;;26.10;20.43;;;18.60;99.90;;;;;;5043693;28;20643;-50
2021/07/25 01:02:27;;;;;;;26.73;21.10;;;18.50;99.90;;;;;;5035498;28;20291;-50
2021/07/25 01:05:03;;;;;;;33.17;21.27;;;18.50;99.90;;;;;;5041547;28;20203;-50
2021/07/25 01:07:58;;;;;;;31.90;20.30;;;18.40;99.90;;;;;;5037972;28;20201;-51
2021/07/25 01:10:31;;;;;;;26.03;20.03;;;18.30;99.90;;;;;;5042277;28;20203;-50
2021/07/25 01:13:03;;;;;;;27.77;18.50;;;18.20;99.90;;;;;;5043855;28;20203;-50
2021/07/25 01:15:31;;;;;;;23.70;17.37;;;18.20;99.90;;;;;;5044016;28;20273;-50
2021/07/25 01:17:59;;;;;;;24.97;16.77;;;18.10;99.90;;;;;;5039565;28;20624;-50
2021/07/25 01:20:27;;;;;;;23.70;17.30;;;18.00;99.90;;;;;;5040614;28;20578;-51
2021/07/25 01:22:56;;;;;;;21.13;16.13;;;18.00;99.90;;;;;;5041350;28;20232;-50
2021/07/25 01:25:25;;;;;;;22.13;16.63;;;18.00;99.90;;;;;;5043252;28;20307;-50
2021/07/25 01:28:02;;;;;;;22.70;16.17;;;18.00;99.90;;;;;;5045819;28;20230;-50
2021/07/25 01:30:32;;;;;;;24.50;16.40;;;18.00;99.90;;;;;;5040504;28;20686;-50
2021/07/25 01:33:02;;;;;;;23.37;16.37;;;18.00;99.90;;;;;;5042040;28;20297;-50
2021/07/25 01:35:31;;;;;;;20.23;14.90;;;18.00;99.90;;;;;;5044805;28;20658;-50
2021/07/25 01:37:59;;;;;;;20.40;13.93;;;18.00;99.90;;;;;;5033178;28;20804;-50
2021/07/25 01:40:26;;;;;;;19.73;14.00;;;18.20;99.90;;;;;;5043299;28;20312;-50
2021/07/25 01:42:55;;;;;;;18.23;13.87;;;18.30;99.90;;;;;;5040119;28;20360;-50
2021/07/25 01:45:22;;;;;;;19.53;14.70;;;18.20;99.90;;;;;;5042843;28;20291;-50
2021/07/25 01:47:49;;;;;;;19.93;13.87;;;18.10;99.90;;;;;;5039819;28;20376;-50
2021/07/25 01:50:16;;;;;;;20.73;14.37;;;18.10;99.90;;;;;;5044307;28;20251;-50
2021/07/25 01:52:44;;;;;;;19.17;14.00;;;18.10;99.90;;;;;;5039161;28;20301;-50
2021/07/25 01:55:11;;;;;;;20.53;15.07;;;18.20;99.90;;;;;;5043209;28;20253;-50
2021/07/25 01:57:38;;;;;;;18.90;13.37;;;18.20;99.90;;;;;;5041943;28;20421;-51
2021/07/25 02:00:06;;;;;;;19.20;13.37;;;18.20;99.90;;;;;;5043723;28;20314;-50
2021/07/25 02:02:33;;;;;;;19.57;14.10;;;18.10;99.90;;;;;;5039269;28;20663;-50
2021/07/25 02:05:00;;;;;;;19.30;14.70;;;18.10;99.90;;;;;;5043694;28;20270;-50
2021/07/25 02:07:27;;;;;;;23.27;15.97;;;18.10;99.90;;;;;;5040737;28;20270;-50
2021/07/25 02:09:54;;;;;;;20.07;14.57;;;18.10;99.90;;;;;;5043470;28;20357;-50
2021/07/25 02:12:20;;;;;;;20.43;13.97;;;18.20;99.90;;;;;;5042184;28;20198;-51
2021/07/25 02:14:48;;;;;;;19.63;14.23;;;18.30;99.90;;;;;;5041590;28;20241;-50
2021/07/25 02:17:14;;;;;;;21.40;14.23;;;18.30;99.90;;;;;;5039421;28;20251;-50
2021/07/25 02:19:41;;;;;;;18.60;14.40;;;18.30;99.90;;;;;;5042615;28;20238;-51
2021/07/25 02:22:08;;;;;;;18.27;13.93;;;18.30;99.90;;;;;;5045070;28;20295;-51
2021/07/25 02:24:35;;;;;;;17.23;14.30;;;18.30;99.90;;;;;;5047372;28;20269;-50
2021/07/25 02:27:02;;;;;;;17.97;13.17;;;18.20;99.90;;;;;;5042277;28;20243;-51
2021/07/25 02:29:28;;;;;;;20.50;12.80;;;18.30;99.90;;;;;;5040344;28;20230;-51
2021/07/25 02:31:55;;;;;;;16.77;12.63;;;18.30;99.90;;;;;;5038932;28;20338;-50
2021/07/25 02:34:22;;;;;;;16.97;13.10;;;18.30;99.90;;;;;;5041035;28;20197;-50
2021/07/25 02:36:49;;;;;;;19.63;13.37;;;18.30;99.90;;;;;;5040393;28;20234;-50
2021/07/25 02:39:16;;;;;;;20.53;13.63;;;18.30;99.90;;;;;;5033904;28;20747;-50
2021/07/25 02:41:42;;;;;;;18.03;12.67;;;18.00;99.90;;;;;;5042878;28;20599;-50
2021/07/25 02:44:09;;;;;;;19.73;13.27;;;17.80;99.90;;;;;;5040969;28;20615;-50
2021/07/25 02:46:36;;;;;;;19.57;13.57;;;17.70;99.90;;;;;;5041249;28;20252;-50
2021/07/25 02:49:03;;;;;;;16.73;12.87;;;17.70;99.90;;;;;;5039969;28;20223;-50
2021/07/25 02:51:30;;;;;;;19.07;13.37;;;17.80;99.90;;;;;;5042316;28;20234;-50
2021/07/25 02:53:57;;;;;;;14.47;12.30;;;17.90;99.90;;;;;;5033694;28;20283;-50
2021/07/25 02:56:24;;;;;;;17.60;12.63;;;17.80;99.90;;;;;;5042446;28;20247;-51
2021/07/25 02:58:51;;;;;;;17.53;12.63;;;17.90;99.90;;;;;;5041599;28;20395;-50
2021/07/25 03:01:18;;;;;;;15.03;12.07;;;18.00;99.90;;;;;;5041642;28;20318;-51
2021/07/25 03:03:45;;;;;;;14.80;12.30;;;18.00;99.90;;;;;;5040297;28;20240;-50
2021/07/25 03:06:12;;;;;;;16.13;11.60;;;18.00;99.90;;;;;;5037898;28;20302;-50
2021/07/25 03:08:39;;;;;;;16.50;11.47;;;17.90;99.90;;;;;;5041236;28;20240;-50
2021/07/25 03:11:07;;;;;;;17.00;11.47;;;18.00;99.90;;;;;;5041066;28;20293;-50
2021/07/25 03:13:35;;;;;;;13.37;10.67;;;18.00;99.90;;;;;;5039781;28;20269;-50
2021/07/25 03:16:07;;;;;;;14.77;11.20;;;18.00;99.90;;;;;;5037948;28;20249;-50
2021/07/25 03:18:34;;;;;;;15.53;10.37;;;18.10;99.90;;;;;;5037459;28;20298;-51
2021/07/25 03:21:02;;;;;;;13.07;10.93;;;18.10;99.90;;;;;;5038628;28;20211;-50
2021/07/25 03:23:29;;;;;;;16.33;11.53;;;17.90;99.90;;;;;;5042419;28;20405;-50
2021/07/25 03:25:56;;;;;;;13.90;11.13;;;17.70;99.90;;;;;;5043831;28;20276;-51
2021/07/25 03:28:23;;;;;;;13.77;10.50;;;17.50;99.90;;;;;;5041566;28;20311;-50
2021/07/25 03:30:50;;;;;;;14.90;10.60;;;17.40;99.90;;;;;;5043482;28;20288;-50
2021/07/25 03:33:19;;;;;;;13.67;10.57;;;17.30;99.90;;;;;;5043741;28;20789;-51
2021/07/25 03:35:47;;;;;;;18.13;11.67;;;17.30;99.90;;;;;;5043328;28;20233;-50
2021/07/25 03:38:15;;;;;;;14.03;10.37;;;17.30;99.90;;;;;;5043729;28;20242;-50
2021/07/25 03:40:43;;;;;;;15.23;10.73;;;17.30;99.90;;;;;;5043844;28;20636;-50
2021/07/25 03:43:11;;;;;;;13.97;10.57;;;17.30;99.90;;;;;;5040892;28;20273;-50
2021/07/25 03:45:44;;;;;;;13.93;10.30;;;17.30;99.90;;;;;;5038403;28;20326;-51
2021/07/25 03:48:12;;;;;;;13.20;10.80;;;17.40;99.90;;;;;;5046104;28;20234;-50
2021/07/25 03:50:41;;;;;;;13.87;9.70;;;17.40;99.90;;;;;;5044578;28;20676;-50
2021/07/25 03:53:08;;;;;;;12.63;9.87;;;17.50;99.90;;;;;;5042858;28;20227;-50
2021/07/25 03:55:36;;;;;;;12.37;9.63;;;17.60;99.90;;;;;;5043265;28;20308;-50
2021/07/25 03:58:03;;;;;;;12.10;10.10;;;17.60;99.90;;;;;;5042471;28;20259;-50
2021/07/25 04:00:30;;;;;;;13.80;9.10;;;17.70;99.90;;;;;;5043350;28;20203;-50
2021/07/25 04:02:57;;;;;;;14.37;8.87;;;17.80;99.90;;;;;;5043186;28;20309;-50
2021/07/25 04:05:25;;;;;;;13.43;9.70;;;17.80;99.90;;;;;;5042975;28;20632;-50
2021/07/25 04:07:51;;;;;;;11.67;8.47;;;17.60;99.90;;;;;;5044823;28;20639;-50
2021/07/25 04:10:18;;;;;;;12.73;9.27;;;17.60;99.90;;;;;;5044931;28;20230;-51
2021/07/25 04:12:45;;;;;;;11.77;8.87;;;17.50;99.90;;;;;;5043808;28;20670;-51
2021/07/25 04:15:13;;;;;;;12.90;8.63;;;17.40;99.90;;;;;;5039494;28;20319;-50
2021/07/25 04:17:40;;;;;;;11.20;9.03;;;17.40;99.90;;;;;;5039880;28;20303;-50
2021/07/25 04:20:07;;;;;;;12.57;9.53;;;17.40;99.90;;;;;;5043712;28;20315;-51
2021/07/25 04:22:38;;;;;;;11.60;8.80;;;17.50;99.90;;;;;;5045984;28;20231;-51
2021/07/25 04:25:06;;;;;;;11.77;9.23;;;17.50;99.90;;;;;;5043801;28;20299;-51
2021/07/25 04:27:33;;;;;;;14.13;9.63;;;17.40;99.90;;;;;;5040432;28;20299;-51
2021/07/25 04:30:00;;;;;;;12.43;9.37;;;17.40;99.90;;;;;;5044053;28;20196;-51
2021/07/25 04:32:27;;;;;;;12.57;9.23;;;17.40;99.90;;;;;;5042830;28;20360;-51
2021/07/25 04:34:54;;;;;;;11.33;8.83;;;17.40;99.90;;;;;;5043017;28;20291;-50
2021/07/25 04:37:23;;;;;;;15.57;9.77;;;17.30;99.90;;;;;;5044770;28;20210;-51
2021/07/25 04:39:51;;;;;;;11.23;8.40;;;17.40;99.90;;;;;;5041114;28;20719;-51
2021/07/25 04:42:20;;;;;;;11.90;9.57;;;17.40;99.90;;;;;;5042915;28;20249;-51
2021/07/25 04:45:04;;;;;;;12.70;9.00;;;17.60;99.90;;;;;;5039250;28;20536;-50
2021/07/25 04:47:40;;;;;;;11.77;9.20;;;17.50;99.90;;;;;;5043915;28;20805;-50
2021/07/25 04:50:12;;;;;;;11.67;8.67;;;17.50;99.90;;;;;;5041318;28;20292;-51
2021/07/25 04:52:41;;;;;;;10.80;8.57;;;17.50;99.90;;;;;;5047101;28;20692;-50
2021/07/25 04:55:11;;;;;;;12.33;9.47;;;17.60;99.90;;;;;;5041838;28;20211;-51
2021/07/25 04:57:44;;;;;;;14.80;8.83;;;17.60;99.90;;;;;;5045582;28;20337;-51
2021/07/25 05:00:14;;;;;;;12.47;8.70;;;17.60;99.90;;;;;;5040543;28;20593;-51
2021/07/25 05:02:42;;;;;;;9.73;7.80;;;17.60;99.90;;;;;;5045161;28;20611;-51
2021/07/25 05:05:10;;;;;;;13.83;8.47;;;17.70;99.90;;;;;;5035445;28;20287;-50
2021/07/25 05:07:41;;;;;;;10.97;8.20;;;17.70;99.90;;;;;;5044379;28;20739;-51
2021/07/25 05:10:09;;;;;;;10.90;8.27;;;17.70;99.90;;;;;;5044360;28;20294;-50
2021/07/25 05:12:44;;;;;;;11.57;8.03;;;17.80;99.90;;;;;;5042618;28;20225;-51
2021/07/25 05:15:28;;;;;;;9.73;8.07;;;17.90;99.90;;;;;;5041510;28;20231;-51
2021/07/25 05:18:06;;;;;;;10.63;8.17;;;17.90;99.90;;;;;;5041944;28;20841;-50
2021/07/25 05:21:13;;;;;;;10.63;8.13;;;17.90;99.90;;;;;;5045919;28;20269;-51
2021/07/25 05:23:45;;;;;;;10.07;7.27;;;17.90;99.90;;;;;;5042186;28;20224;-51
2021/07/25 05:26:13;;;;;;;9.77;7.90;;;17.80;99.90;;;;;;5042437;28;20261;-51
2021/07/25 05:28:42;;;;;;;11.40;8.27;;;18.00;99.90;;;;;;5045456;28;20264;-51
2021/07/25 05:31:10;;;;;;;13.67;9.37;;;18.00;99.90;;;;;;5042983;28;20255;-51
2021/07/25 05:33:37;;;;;;;12.70;8.70;;;17.90;99.90;;;;;;5044575;28;20216;-50
2021/07/25 05:36:03;;;;;;;12.07;8.67;;;17.80;99.90;;;;;;5039635;28;20605;-51
2021/07/25 05:38:30;;;;;;;12.27;9.43;;;17.80;99.90;;;;;;5044663;28;20674;-50
2021/07/25 05:40:57;;;;;;;11.97;9.37;;;17.80;99.90;;;;;;5044492;28;20315;-50
2021/07/25 05:43:24;;;;;;;14.20;10.90;;;17.70;99.90;;;;;;5042066;28;20393;-50
2021/07/25 05:45:51;;;;;;;15.17;10.20;;;17.70;99.90;;;;;;5038845;28;20258;-51
2021/07/25 05:48:18;;;;;;;12.73;10.30;;;17.70;99.90;;;;;;5039656;28;20217;-51
2021/07/25 05:50:45;;;;;;;14.37;9.83;;;17.80;99.90;;;;;;5043662;28;20296;-51
2021/07/25 05:53:11;;;;;;;15.20;10.53;;;17.90;99.90;;;;;;5038599;28;20228;-50
2021/07/25 05:55:38;;;;;;;12.23;10.13;;;18.20;99.90;;;;;;5039232;28;20780;-51
2021/07/25 05:58:05;;;;;;;12.87;10.07;;;18.30;99.90;;;;;;5041729;28;20325;-50
2021/07/25 06:00:32;;;;;;;14.27;10.17;;;18.20;99.90;;;;;;5038591;28;20650;-51
2021/07/25 06:03:00;;;;;;;14.27;10.07;;;18.20;99.90;;;;;;5040814;28;20206;-50
2021/07/25 06:05:29;;;;;;;12.07;10.63;;;18.30;99.90;;;;;;5039804;28;20209;-50
2021/07/25 06:07:58;;;;;;;12.67;10.03;;;18.40;99.90;;;;;;5041511;28;20244;-50
2021/07/25 06:10:27;;;;;;;12.27;9.70;;;18.50;99.90;;;;;;5042852;28;20293;-50
2021/07/25 06:12:58;;;;;;;13.33;10.17;;;18.50;99.90;;;;;;5044481;28;20665;-51
2021/07/25 06:15:26;;;;;;;13.07;10.17;;;18.70;99.90;;;;;;5043062;28;20347;-51
2021/07/25 06:17:54;;;;;;;14.53;10.27;;;18.70;99.90;;;;;;5044204;28;20253;-51
2021/07/25 06:20:20;;;;;;;17.77;9.60;;;18.70;99.90;;;;;;5043040;28;20753;-51
2021/07/25 06:22:50;;;;;;;12.33;9.37;;;18.70;99.90;;;;;;5041509;28;20294;-50
2021/07/25 06:25:20;;;;;;;13.77;9.83;;;18.70;99.90;;;;;;5040604;28;20293;-51
2021/07/25 06:27:51;;;;;;;13.67;10.00;;;18.70;99.90;;;;;;5043762;28;20226;-50
2021/07/25 06:30:19;;;;;;;11.60;9.63;;;18.70;99.90;;;;;;5041316;28;20207;-50
2021/07/25 06:32:56;;;;;;;13.20;9.53;;;18.70;99.90;;;;;;5040614;28;20268;-51
2021/07/25 06:35:29;;;;;;;11.97;9.63;;;18.80;99.90;;;;;;5037877;28;20340;-51
2021/07/25 06:37:57;;;;;;;14.33;10.07;;;18.80;99.90;;;;;;5030150;28;20257;-51
2021/07/25 06:40:25;;;;;;;16.10;9.27;;;18.90;99.90;;;;;;5036269;28;20240;-51
2021/07/25 06:42:53;;;;;;;11.93;9.27;;;18.90;99.90;;;;;;5036818;28;20237;-51
2021/07/25 06:45:21;;;;;;;11.90;9.03;;;19.00;99.90;;;;;;5040343;28;20285;-50
2021/07/25 06:47:49;;;;;;;12.47;9.87;;;19.10;99.90;;;;;;5041371;28;20685;-51
2021/07/25 06:50:22;;;;;;;15.33;9.33;;;19.10;99.90;;;;;;5034162;28;20231;-50
2021/07/25 06:52:51;;;;;;;13.23;9.00;;;19.00;99.90;;;;;;5042784;28;20227;-51
2021/07/25 06:55:20;;;;;;;14.73;9.30;;;19.00;99.90;;;;;;5038024;28;20287;-50
2021/07/25 06:57:47;;;;;;;13.33;9.60;;;19.10;99.90;;;;;;5035006;28;21488;-50
2021/07/25 07:00:14;;;;;;;13.60;9.30;;;19.10;99.90;;;;;;5037636;28;20334;-51
2021/07/25 07:02:59;;;;;;;11.83;8.90;;;19.00;99.90;;;;;;5037312;28;20312;-50
2021/07/25 07:05:29;;;;;;;12.83;8.53;;;19.00;99.90;;;;;;5039012;28;20210;-50
2021/07/25 07:07:57;;;;;;;13.20;8.83;;;19.00;99.90;;;;;;5042959;28;20214;-51
2021/07/25 07:10:27;;;;;;;12.70;9.80;;;19.00;99.90;;;;;;5036556;28;20509;-50
2021/07/25 07:12:55;;;;;;;11.53;8.90;;;19.20;99.90;;;;;;5042516;28;20733;-50
2021/07/25 07:15:23;;;;;;;13.03;9.13;;;19.20;99.90;;;;;;5039191;28;20291;-50
2021/07/25 07:17:52;;;;;;;11.07;8.80;;;19.40;99.90;;;;;;5034621;28;20514;-50
2021/07/25 07:20:20;;;;;;;12.97;9.70;;;19.70;99.90;;;;;;5043650;28;20240;-50
2021/07/25 07:22:59;;;;;;;12.70;8.40;;;20.00;99.90;;;;;;5043170;28;20241;-50
2021/07/25 07:25:28;;;;;;;10.90;7.93;;;20.30;99.90;;;;;;5045026;28;20679;-50
2021/07/25 07:27:56;;;;;;;15.83;9.03;;;20.50;99.90;;;;;;5043600;28;20293;-50
2021/07/25 07:30:23;;;;;;;9.07;7.17;;;20.70;99.90;;;;;;5040176;28;20216;-51
2021/07/25 07:32:50;;;;;;;10.43;7.33;;;20.80;99.90;;;;;;5038694;28;20714;-50
2021/07/25 07:35:24;;;;;;;11.07;6.70;;;21.00;99.90;;;;;;5039543;28;20255;-51
2021/07/25 07:37:51;;;;;;;9.10;7.10;;;20.80;99.90;;;;;;5038946;28;20246;-50
2021/07/25 07:40:19;;;;;;;10.73;7.10;;;21.00;99.90;;;;;;5040507;28;20327;-51
2021/07/25 07:42:46;;;;;;;9.93;6.73;;;21.10;99.90;;;;;;5045351;28;20232;-50
2021/07/25 07:45:14;;;;;;;9.43;6.17;;;21.10;99.90;;;;;;5041532;28;20272;-51
2021/07/25 07:47:41;;;;;;;10.37;6.97;;;21.10;99.90;;;;;;5037271;28;20310;-50
2021/07/25 07:50:08;;;;;;;8.53;6.40;;;21.40;99.90;;;;;;5040856;28;20207;-50
2021/07/25 07:52:35;;;;;;;9.03;6.53;;;21.60;99.90;;;;;;5040537;28;20632;-50
2021/07/25 07:55:02;;;;;;;9.10;6.30;;;21.60;99.90;;;;;;5044813;28;20219;-49
2021/07/25 07:57:29;;;;;;;11.37;5.53;;;21.70;99.90;;;;;;5040384;28;20243;-50
2021/07/25 07:59:56;;;;;;;7.70;5.63;;;21.80;99.90;;;;;;5046094;28;20239;-50
2021/07/25 08:02:23;;;;;;;10.20;5.90;;;21.70;99.90;;;;;;5041542;28;20631;-50
2021/07/25 08:04:51;;;;;;;8.73;5.80;;;21.80;99.90;;;;;;5037771;28;20215;-50
2021/07/25 08:07:18;;;;;;;7.60;6.37;;;22.00;99.90;;;;;;5037195;28;20743;-50
2021/07/25 08:09:45;;;;;;;8.17;5.70;;;22.40;99.90;;;;;;5042091;28;20200;-50
2021/07/25 08:12:12;;;;;;;8.43;5.07;;;22.50;99.90;;;;;;5042768;28;20228;-50
2021/07/25 08:14:39;;;;;;;5.60;4.50;;;22.90;99.90;;;;;;5043134;28;20403;-50
2021/07/25 08:17:05;;;;;;;6.80;5.17;;;23.10;99.90;;;;;;5042502;28;20283;-50
2021/07/25 08:19:32;;;;;;;9.70;5.07;;;23.20;99.90;;;;;;5044793;28;20285;-50
2021/07/25 08:21:59;;;;;;;5.93;4.37;;;23.10;99.90;;;;;;5040873;28;20282;-50
2021/07/25 08:24:26;;;;;;;6.80;4.23;;;23.10;99.90;;;;;;5039780;28;20283;-50
2021/07/25 08:26:53;;;;;;;4.93;3.73;;;23.00;99.90;;;;;;5040454;28;20270;-50
2021/07/25 08:29:19;;;;;;;5.27;4.20;;;23.30;99.90;;;;;;5046039;28;20296;-50
2021/07/25 08:31:46;;;;;;;7.10;3.80;;;23.30;99.90;;;;;;5035639;28;20314;-50
2021/07/25 08:34:13;;;;;;;5.23;3.70;;;23.20;99.90;;;;;;5041313;28;20604;-50
2021/07/25 08:36:40;;;;;;;5.13;4.13;;;23.50;99.90;;;;;;5041467;28;20722;-49
2021/07/25 08:39:07;;;;;;;6.53;3.60;;;23.40;34.30;;;;;;5035934;28;20291;-50
2021/07/25 08:41:56;;;;;;;5.93;3.57;;;23.40;73.00;;;;;;5040398;28;20237;-50
2021/07/25 08:44:38;;;;;;;4.07;3.20;;;23.20;1.00;;;;;;5038151;28;20709;-50
2021/07/25 08:47:25;;;;;;;5.83;3.17;;;23.60;1.00;;;;;;5038782;28;20253;-50
2021/07/25 08:50:02;;;;;;;4.57;4.10;;;24.10;1.00;;;;;;5019602;28;20236;-50
2021/07/25 08:52:44;;;;;;;8.27;3.73;;;24.20;2.70;;;;;;5037177;28;20295;-50
2021/07/25 08:55:16;;;;;;;4.63;3.40;;;24.70;1.00;;;;;;5041606;28;20216;-50
2021/07/25 08:57:46;;;;;;;5.20;3.77;;;24.70;1.00;;;;;;5039919;28;20353;-50
2021/07/25 09:00:18;;;;;;;5.87;3.70;;;24.60;1.00;;;;;;5040624;28;20309;-50
2021/07/25 09:02:48;;;;;;;4.87;3.50;;;24.40;1.00;;;;;;5040868;28;20296;-50
2021/07/25 09:05:15;;;;;;;5.27;3.50;;;24.60;1.00;;;;;;5038165;28;20328;-50
2021/07/25 09:07:45;;;;;;;6.13;4.20;;;24.60;1.00;;;;;;5042303;28;20220;-50
2021/07/25 09:10:16;;;;;;;5.20;3.50;;;24.30;1.00;;;;;;5039116;28;20292;-50
2021/07/25 09:12:44;;;;;;;5.87;3.30;;;24.10;1.00;;;;;;5043339;28;20721;-50
2021/07/25 09:15:20;;;;;;;4.82;3.80;;;24.80;1.00;;;;;;5038519;28;20541;-49
2021/07/25 09:17:50;;;;;;;4.67;3.27;;;25.40;1.00;;;;;;5038010;28;20204;-48
2021/07/25 09:20:21;;;;;;;6.73;3.77;;;26.00;99.90;;;;;;5039630;28;20301;-48
2021/07/25 09:22:48;;;;;;;3.90;3.40;;;25.70;99.90;;;;;;5030838;28;20307;-48
2021/07/25 09:25:21;;;;;;;5.67;3.23;;;25.70;1.00;;;;;;5039974;28;20200;-49
2021/07/25 09:27:57;;;;;;;5.57;3.33;;;26.80;1.00;;;;;;5044463;28;20230;-48
2021/07/25 09:30:30;;;;;;;4.90;3.30;;;26.60;1.00;;;;;;5037808;28;20343;-48
2021/07/25 09:32:57;;;;;;;4.13;3.10;;;26.40;1.00;;;;;;5039108;28;20699;-48
2021/07/25 09:35:29;;;;;;;4.40;3.20;;;26.30;1.00;;;;;;5039708;28;20201;-49
2021/07/25 09:38:02;;;;;;;3.30;2.50;;;26.90;99.90;;;;;;5042466;28;20241;-48
2021/07/25 09:40:34;;;;;;;4.30;3.00;;;27.30;99.90;;;;;;5034193;28;20203;-49
2021/07/25 09:43:07;;;;;;;3.90;2.70;;;27.70;99.90;;;;;;5039862;28;20637;-48
2021/07/25 09:45:55;;;;;;;4.67;2.67;;;26.60;99.90;;;;;;5039118;28;20224;-48
2021/07/25 09:48:33;;;;;;;5.77;2.80;;;27.30;1.00;;;;;;5037960;28;20219;-48
2021/07/25 09:51:03;;;;;;;4.63;2.90;;;27.10;1.00;;;;;;5040032;28;20199;-48
2021/07/25 09:53:45;;;;;;;5.13;3.00;;;27.20;1.00;;;;;;5039346;28;20348;-48
2021/07/25 09:56:19;;;;;;;4.90;3.10;;;27.10;99.90;;;;;;5040204;28;20270;-49
2021/07/25 09:58:47;;;;;;;3.83;2.57;;;27.10;1.00;;;;;;5043109;28;20262;-48
2021/07/25 10:01:39;;;;;;;4.33;3.00;;;27.30;99.90;;;;;;5037044;28;20290;-49
2021/07/25 10:04:27;;;;;;;3.27;2.50;;;26.90;1.00;;;;;;5040610;28;20368;-48
2021/07/25 10:06:55;;;;;;;3.83;2.60;;;26.90;1.00;;;;;;5033712;28;20299;-49
2021/07/25 10:09:23;;;;;;;4.43;3.00;;;26.60;1.00;;;;;;5044660;28;20289;-50
2021/07/25 10:12:01;;;;;;;5.20;2.70;;;26.80;1.00;;;;;;5044087;28;20235;-48
2021/07/25 10:14:30;;;;;;;3.43;2.50;;;26.40;1.00;;;;;;5042569;28;20203;-49
2021/07/25 10:17:01;;;;;;;4.50;2.80;;;26.90;1.00;;;;;;5041874;28;20207;-49
2021/07/25 10:19:39;;;;;;;3.07;2.10;;;27.00;1.00;;;;;;5043085;28;20207;-49
2021/07/25 10:22:09;;;;;;;4.60;2.60;;;27.00;1.00;;;;;;5042913;28;20294;-48
2021/07/25 10:24:38;;;;;;;3.23;2.23;;;27.20;1.00;;;;;;5039451;28;20551;-48
2021/07/25 10:27:06;;;;;;;3.30;2.13;;;27.30;1.00;;;;;;5042559;28;20239;-49
2021/07/25 10:29:33;;;;;;;2.83;2.30;;;26.90;7.60;;;;;;5042603;28;20244;-48
2021/07/25 10:32:01;;;;;;;2.33;2.13;;;27.20;1.00;;;;;;5043889;28;20310;-49
2021/07/25 10:34:31;;;;;;;3.20;2.43;;;26.60;1.00;;;;;;5044034;28;20291;-49
2021/07/25 10:36:58;;;;;;;3.73;2.40;;;26.70;1.00;;;;;;5043434;28;20242;-49
2021/07/25 10:39:27;;;;;;;3.73;2.50;;;26.60;1.00;;;;;;5042577;28;20311;-48
2021/07/25 10:42:00;;;;;;;2.47;2.10;;;26.20;1.00;;;;;;5047425;28;20294;-48
2021/07/25 10:44:28;;;;;;;4.43;2.27;;;25.60;99.90;;;;;;5044872;28;20295;-49
2021/07/25 10:47:17;;;;;;;4.07;2.40;;;25.40;99.90;;;;;;5047255;28;20291;-49
2021/07/25 10:49:44;;;;;;;3.30;2.10;;;25.90;99.90;;;;;;5045658;28;20233;-49
2021/07/25 10:52:10;;;;;;;3.97;2.63;;;26.10;1.00;;;;;;5048690;28;20754;-49
2021/07/25 10:54:46;;;;;;;2.40;2.00;;;25.70;1.00;;;;;;5046224;28;20295;-48
2021/07/25 10:57:14;;;;;;;3.63;2.53;;;25.40;1.00;;;;;;5045900;28;20627;-48
2021/07/25 11:00:00;;;;;;;3.20;2.30;;;25.00;1.00;;;;;;5046663;28;20252;-48
2021/07/25 11:02:29;;;;;;;3.17;2.23;;;25.70;1.00;;;;;;5047303;28;20207;-49
2021/07/25 11:04:56;;;;;;;2.63;2.13;;;26.40;1.00;;;;;;5047432;28;20306;-49
2021/07/25 11:07:23;;;;;;;3.37;1.70;;;26.70;1.00;;;;;;5047902;28;20273;-48
2021/07/25 11:09:59;;;;;;;3.23;1.97;;;26.90;1.00;;;;;;5046950;28;20223;-49
2021/07/25 11:12:46;;;;;;;4.40;1.93;;;27.30;1.00;;;;;;5048533;28;20604;-48
2021/07/25 11:15:32;;;;;;;3.80;1.60;;;27.80;1.00;;;;;;5046390;28;20587;-49
2021/07/25 11:18:05;;;;;;;3.27;2.50;;;28.20;1.00;;;;;;5047710;28;20199;-49
2021/07/25 11:20:54;;;;;;;2.57;1.87;;;27.40;99.90;;;;;;5045501;28;20759;-49
2021/07/25 11:23:20;;;;;;;2.80;2.00;;;26.70;1.00;;;;;;5047653;28;20668;-49
2021/07/25 11:25:48;;;;;;;2.57;1.80;;;26.40;1.00;;;;;;5047117;28;20250;-49
2021/07/25 11:28:38;;;;;;;2.57;1.80;;;26.30;1.00;;;;;;5048266;28;20400;-49
2021/07/25 11:31:06;;;;;;;2.53;1.80;;;26.90;1.00;;;;;;5044629;28;20254;-48
2021/07/25 11:33:45;;;;;;;2.20;1.43;;;27.60;1.00;;;;;;5047084;28;20272;-48
2021/07/25 11:36:13;;;;;;;2.50;1.53;;;27.90;1.00;;;;;;5048046;28;20251;-48
2021/07/25 11:38:41;;;;;;;3.40;1.57;;;28.10;1.00;;;;;;5046577;28;20313;-48
2021/07/25 11:41:10;;;;;;;4.70;1.60;;;28.70;1.00;;;;;;5047750;28;20211;-49
2021/07/25 11:43:58;;;;;;;2.73;1.60;;;28.50;99.90;;;;;;5047305;28;20249;-48
2021/07/25 11:46:38;;;;;;;2.07;1.50;;;28.30;99.90;;;;;;5045934;28;20246;-49
2021/07/25 11:49:11;;;;;;;1.93;1.20;;;28.60;99.90;;;;;;5061323;28;20700;-48
2021/07/25 11:51:43;;;;;;;1.70;1.50;;;29.90;1.00;;;;;;5045702;28;20208;-48
2021/07/25 11:54:16;;;;;;;2.70;1.55;;;29.40;1.00;;;;;;5045917;28;20632;-48
2021/07/25 11:57:13;;;;;;;4.38;1.52;;;29.20;1.00;;;;;;5045888;28;20219;-49
2021/07/25 11:59:48;;;;;;;2.70;1.48;;;29.10;1.00;;;;;;5044199;28;20283;-49
2021/07/25 12:02:26;;;;;;;1.10;1.00;;;29.30;1.00;;;;;;5045790;28;20666;-49
2021/07/25 12:04:55;;;;;;;2.53;1.83;;;30.10;99.90;;;;;;5043823;28;20299;-49
2021/07/25 12:07:29;;;;;;;2.53;1.40;;;29.80;1.00;;;;;;5047947;28;20282;-49
2021/07/25 12:09:56;;;;;;;1.42;1.30;;;30.50;99.90;;;;;;5046551;28;20243;-49
2021/07/25 12:12:26;;;;;;;3.25;1.73;;;30.20;1.00;;;;;;5046069;28;20220;-49
2021/07/25 12:15:00;;;;;;;2.08;1.58;;;28.90;1.00;;;;;;5062038;28;20227;-48
2021/07/25 12:17:44;;;;;;;1.70;1.45;;;29.30;1.00;;;;;;5045778;28;20215;-49
2021/07/25 12:20:13;;;;;;;3.38;1.25;;;29.40;1.00;;;;;;5047166;28;20239;-49
2021/07/25 12:23:00;;;;;;;2.57;1.27;;;29.40;99.90;;;;;;5046344;28;20204;-49
2021/07/25 12:25:32;;;;;;;2.00;1.30;;;28.40;1.00;;;;;;5044517;28;20281;-49
2021/07/25 12:28:08;;;;;;;1.83;1.60;;;27.90;1.00;;;;;;5047649;28;20291;-49
2021/07/25 12:30:45;;;;;;;3.90;2.10;;;27.60;99.90;;;;;;5044245;28;20597;-49
2021/07/25 12:33:13;;;;;;;3.17;1.80;;;27.00;1.00;;;;;;5046056;28;20203;-49
2021/07/25 12:35:40;;;;;;;2.60;1.80;;;26.70;1.00;;;;;;5061842;28;20297;-49
2021/07/25 12:38:15;;;;;;;3.37;1.47;;;26.60;1.00;;;;;;5046244;28;20236;-49
2021/07/25 12:40:49;;;;;;;1.47;1.37;;;26.60;1.00;;;;;;5044475;28;20245;-49
2021/07/25 12:43:21;;;;;;;3.17;1.67;;;27.00;1.00;;;;;;5046291;28;20236;-49
2021/07/25 12:45:49;;;;;;;2.10;1.23;;;28.00;1.00;;;;;;5046000;28;20658;-50
2021/07/25 12:48:24;;;;;;;2.73;1.50;;;28.70;1.00;;;;;;5045239;28;20239;-48
2021/07/25 12:51:32;;;;;;;2.73;1.50;;;28.70;1.00;;;;;;5045555;28;20191;-49
2021/07/25 12:54:02;;;;;;;2.20;1.60;;;29.10;1.00;;;;;;5046035;28;20215;-49
2021/07/25 12:56:30;;;;;;;3.33;1.50;;;28.90;99.90;;;;;;5043913;28;20246;-49